sensor_id;sensor_type;location;lat;lon;timestamp;pressure;altitude;pressure_sealevel;temperature
15453;BMP280;7827;53.594;9.938;2022-09-29T00:01:18;150494.97;;;8.71
15453;BMP280;7827;53.594;9.938;2022-09-29T00:03:46;150493.75;;;8.71
15453;BMP280;7827;53.594;9.938;2022-09-29T00:06:17;150493.75;;;8.71
15453;BMP280;7827;53.594;9.938;2022-09-29T00:08:47;150491.22;;;8.70
15453;BMP280;7827;53.594;9.938;2022-09-29T00:11:18;150488.69;;;8.69
15453;BMP280;7827;53.594;9.938;2022-09-29T00:13:47;150486.22;;;8.68
15453;BMP280;7827;53.594;9.938;2022-09-29T00:16:15;150478.72;;;8.65
15453;BMP280;7827;53.594;9.938;2022-09-29T00:18:43;150469.94;;;8.61
15453;BMP280;7827;53.594;9.938;2022-09-29T00:21:15;150461.22;;;8.58
15453;BMP280;7827;53.594;9.938;2022-09-29T00:23:48;150461.22;;;8.58
15453;BMP280;7827;53.594;9.938;2022-09-29T00:26:21;150458.69;;;8.57
15453;BMP280;7827;53.594;9.938;2022-09-29T00:28:53;150449.94;;;8.53
15453;BMP280;7827;53.594;9.938;2022-09-29T00:31:26;150441.22;;;8.50
15453;BMP280;7827;53.594;9.938;2022-09-29T00:33:56;150451.19;;;8.54
15453;BMP280;7827;53.594;9.938;2022-09-29T00:36:25;150451.19;;;8.54
15453;BMP280;7827;53.594;9.938;2022-09-29T00:38:57;150448.72;;;8.53
15453;BMP280;7827;53.594;9.938;2022-09-29T00:41:29;150448.72;;;8.53
15453;BMP280;7827;53.594;9.938;2022-09-29T00:44:00;150438.69;;;8.49
15453;BMP280;7827;53.594;9.938;2022-09-29T00:46:41;150439.94;;;8.49
15453;BMP280;7827;53.594;9.938;2022-09-29T00:49:19;150437.47;;;8.48
15453;BMP280;7827;53.594;9.938;2022-09-29T00:51:58;150441.22;;;8.50
15453;BMP280;7827;53.594;9.938;2022-09-29T00:54:32;150438.69;;;8.49
15453;BMP280;7827;53.594;9.938;2022-09-29T00:57:06;150433.72;;;8.47
15453;BMP280;7827;53.594;9.938;2022-09-29T00:59:44;150422.44;;;8.42
15453;BMP280;7827;53.594;9.938;2022-09-29T01:02:14;150422.44;;;8.42
15453;BMP280;7827;53.594;9.938;2022-09-29T01:04:43;150417.41;;;8.40
15453;BMP280;7827;53.594;9.938;2022-09-29T01:07:13;150413.66;;;8.39
15453;BMP280;7827;53.594;9.938;2022-09-29T01:09:43;150406.16;;;8.36
15453;BMP280;7827;53.594;9.938;2022-09-29T01:12:13;150412.44;;;8.38
15453;BMP280;7827;53.594;9.938;2022-09-29T01:14:43;150411.19;;;8.38
15453;BMP280;7827;53.594;9.938;2022-09-29T01:17:12;150409.91;;;8.37
15453;BMP280;7827;53.594;9.938;2022-09-29T01:19:50;150407.44;;;8.36
15453;BMP280;7827;53.594;9.938;2022-09-29T01:26:35;150398.66;;;8.33
15453;BMP280;7827;53.594;9.938;2022-09-29T01:29:44;150394.91;;;8.31
15453;BMP280;7827;53.594;9.938;2022-09-29T01:32:23;150386.19;;;8.28
15453;BMP280;7827;53.594;9.938;2022-09-29T01:35:06;150387.41;;;8.28
15453;BMP280;7827;53.594;9.938;2022-09-29T01:37:52;150387.41;;;8.28
15453;BMP280;7827;53.594;9.938;2022-09-29T01:40:34;150389.94;;;8.29
15453;BMP280;7827;53.594;9.938;2022-09-29T01:43:11;150393.69;;;8.31
15453;BMP280;7827;53.594;9.938;2022-09-29T01:45:48;150398.66;;;8.33
15453;BMP280;7827;53.594;9.938;2022-09-29T01:48:25;150386.19;;;8.28
15453;BMP280;7827;53.594;9.938;2022-09-29T01:51:02;150379.91;;;8.25
15453;BMP280;7827;53.594;9.938;2022-09-29T01:53:37;150373.63;;;8.23
15453;BMP280;7827;53.594;9.938;2022-09-29T01:56:16;150371.16;;;8.22
15453;BMP280;7827;53.594;9.938;2022-09-29T01:58:52;150367.41;;;8.21
15453;BMP280;7827;53.594;9.938;2022-09-29T02:01:31;150371.16;;;8.22
15453;BMP280;7827;53.594;9.938;2022-09-29T02:04:10;150364.91;;;8.20
15453;BMP280;7827;53.594;9.938;2022-09-29T02:06:48;150363.66;;;8.19
15453;BMP280;7827;53.594;9.938;2022-09-29T02:09:25;150363.66;;;8.19
15453;BMP280;7827;53.594;9.938;2022-09-29T02:11:59;150367.41;;;8.21
15453;BMP280;7827;53.594;9.938;2022-09-29T02:14:32;150369.88;;;8.22
15453;BMP280;7827;53.594;9.938;2022-09-29T02:17:06;150363.66;;;8.19
15453;BMP280;7827;53.594;9.938;2022-09-29T02:19:41;150351.13;;;8.14
15453;BMP280;7827;53.594;9.938;2022-09-29T02:22:11;150346.16;;;8.12
15453;BMP280;7827;53.594;9.938;2022-09-29T02:24:40;150344.91;;;8.12
15453;BMP280;7827;53.594;9.938;2022-09-29T02:27:09;150338.59;;;8.09
15453;BMP280;7827;53.594;9.938;2022-09-29T02:29:38;150342.34;;;8.11
15453;BMP280;7827;53.594;9.938;2022-09-29T02:32:08;150344.91;;;8.12
15453;BMP280;7827;53.594;9.938;2022-09-29T02:34:42;150351.13;;;8.14
15453;BMP280;7827;53.594;9.938;2022-09-29T02:37:38;150352.41;;;8.15
15453;BMP280;7827;53.594;9.938;2022-09-29T02:40:27;150342.34;;;8.11
15453;BMP280;7827;53.594;9.938;2022-09-29T02:43:14;150344.91;;;8.12
15453;BMP280;7827;53.594;9.938;2022-09-29T02:46:05;150336.06;;;8.08
15453;BMP280;7827;53.594;9.938;2022-09-29T02:49:11;150331.09;;;8.06
15453;BMP280;7827;53.594;9.938;2022-09-29T02:51:49;150327.34;;;8.05
15453;BMP280;7827;53.594;9.938;2022-09-29T02:54:40;150324.84;;;8.04
15453;BMP280;7827;53.594;9.938;2022-09-29T02:57:22;150327.34;;;8.05
15453;BMP280;7827;53.594;9.938;2022-09-29T03:00:00;150329.88;;;8.06
15453;BMP280;7827;53.594;9.938;2022-09-29T03:02:36;150329.88;;;8.06
15453;BMP280;7827;53.594;9.938;2022-09-29T03:05:09;150326.13;;;8.04
15453;BMP280;7827;53.594;9.938;2022-09-29T03:07:39;150322.34;;;8.03
15453;BMP280;7827;53.594;9.938;2022-09-29T03:10:10;150311.09;;;7.98
15453;BMP280;7827;53.594;9.938;2022-09-29T03:12:39;150307.34;;;7.97
15453;BMP280;7827;53.594;9.938;2022-09-29T03:15:09;150304.84;;;7.96
15453;BMP280;7827;53.594;9.938;2022-09-29T03:17:39;150296.06;;;7.92
15453;BMP280;7827;53.594;9.938;2022-09-29T03:20:08;150297.34;;;7.93
15453;BMP280;7827;53.594;9.938;2022-09-29T03:22:38;150296.06;;;7.92
15453;BMP280;7827;53.594;9.938;2022-09-29T03:25:07;150297.34;;;7.93
15453;BMP280;7827;53.594;9.938;2022-09-29T03:27:36;150289.84;;;7.90
15453;BMP280;7827;53.594;9.938;2022-09-29T03:30:07;150277.31;;;7.85
15453;BMP280;7827;53.594;9.938;2022-09-29T03:32:35;150279.81;;;7.86
15453;BMP280;7827;53.594;9.938;2022-09-29T03:35:06;150271.09;;;7.82
15453;BMP280;7827;53.594;9.938;2022-09-29T03:37:34;150274.84;;;7.84
15453;BMP280;7827;53.594;9.938;2022-09-29T03:40:05;150276.06;;;7.84
15453;BMP280;7827;53.594;9.938;2022-09-29T03:42:34;150274.84;;;7.84
15453;BMP280;7827;53.594;9.938;2022-09-29T03:45:02;150274.84;;;7.84
15453;BMP280;7827;53.594;9.938;2022-09-29T03:47:31;150278.59;;;7.85
15453;BMP280;7827;53.594;9.938;2022-09-29T03:49:59;150278.59;;;7.85
15453;BMP280;7827;53.594;9.938;2022-09-29T03:52:28;150279.81;;;7.86
15453;BMP280;7827;53.594;9.938;2022-09-29T03:54:56;150278.59;;;7.85
15453;BMP280;7827;53.594;9.938;2022-09-29T03:57:26;150282.34;;;7.87
15453;BMP280;7827;53.594;9.938;2022-09-29T03:59:54;150282.34;;;7.87
15453;BMP280;7827;53.594;9.938;2022-09-29T04:02:22;150278.59;;;7.85
15453;BMP280;7827;53.594;9.938;2022-09-29T04:04:50;150276.06;;;7.84
15453;BMP280;7827;53.594;9.938;2022-09-29T04:07:19;150271.09;;;7.82
15453;BMP280;7827;53.594;9.938;2022-09-29T04:09:47;150273.56;;;7.83
15453;BMP280;7827;53.594;9.938;2022-09-29T04:12:15;150273.56;;;7.83
15453;BMP280;7827;53.594;9.938;2022-09-29T04:14:45;150276.06;;;7.84
15453;BMP280;7827;53.594;9.938;2022-09-29T04:17:14;150262.31;;;7.79
15453;BMP280;7827;53.594;9.938;2022-09-29T04:19:42;150263.59;;;7.79
15453;BMP280;7827;53.594;9.938;2022-09-29T04:22:10;150256.09;;;7.76
15453;BMP280;7827;53.594;9.938;2022-09-29T04:24:39;150249.84;;;7.74
15453;BMP280;7827;53.594;9.938;2022-09-29T04:27:07;150253.56;;;7.75
15453;BMP280;7827;53.594;9.938;2022-09-29T04:29:35;150252.34;;;7.75
15453;BMP280;7827;53.594;9.938;2022-09-29T04:32:05;150256.09;;;7.76
15453;BMP280;7827;53.594;9.938;2022-09-29T04:34:33;150259.84;;;7.78
15453;BMP280;7827;53.594;9.938;2022-09-29T04:37:02;150253.56;;;7.75
15453;BMP280;7827;53.594;9.938;2022-09-29T04:39:30;150261.09;;;7.78
15453;BMP280;7827;53.594;9.938;2022-09-29T04:41:58;150261.09;;;7.78
15453;BMP280;7827;53.594;9.938;2022-09-29T04:44:26;150266.06;;;7.80
15453;BMP280;7827;53.594;9.938;2022-09-29T04:46:55;150273.56;;;7.83
15453;BMP280;7827;53.594;9.938;2022-09-29T04:49:25;150262.31;;;7.79
15453;BMP280;7827;53.594;9.938;2022-09-29T04:51:53;150277.31;;;7.85
15453;BMP280;7827;53.594;9.938;2022-09-29T04:54:21;150278.59;;;7.85
15453;BMP280;7827;53.594;9.938;2022-09-29T04:56:50;150271.09;;;7.82
15453;BMP280;7827;53.594;9.938;2022-09-29T04:59:18;150268.56;;;7.81
15453;BMP280;7827;53.594;9.938;2022-09-29T05:01:48;150261.09;;;7.78
15453;BMP280;7827;53.594;9.938;2022-09-29T05:04:16;150259.84;;;7.78
15453;BMP280;7827;53.594;9.938;2022-09-29T05:06:46;150264.81;;;7.80
15453;BMP280;7827;53.594;9.938;2022-09-29T05:09:14;150266.06;;;7.80
15453;BMP280;7827;53.594;9.938;2022-09-29T05:11:42;150268.56;;;7.81
15453;BMP280;7827;53.594;9.938;2022-09-29T05:14:11;150276.06;;;7.84
15453;BMP280;7827;53.594;9.938;2022-09-29T05:16:39;150279.81;;;7.86
15453;BMP280;7827;53.594;9.938;2022-09-29T05:19:07;150283.56;;;7.87
15453;BMP280;7827;53.594;9.938;2022-09-29T05:21:36;150284.81;;;7.88
15453;BMP280;7827;53.594;9.938;2022-09-29T05:24:06;150292.31;;;7.91
15453;BMP280;7827;53.594;9.938;2022-09-29T05:26:35;150291.06;;;7.90
15453;BMP280;7827;53.594;9.938;2022-09-29T05:29:03;150293.59;;;7.91
15453;BMP280;7827;53.594;9.938;2022-09-29T05:31:31;150289.84;;;7.90
15453;BMP280;7827;53.594;9.938;2022-09-29T05:33:59;150289.84;;;7.90
15453;BMP280;7827;53.594;9.938;2022-09-29T05:36:28;150296.06;;;7.92
15453;BMP280;7827;53.594;9.938;2022-09-29T05:38:56;150294.81;;;7.92
15453;BMP280;7827;53.594;9.938;2022-09-29T05:41:26;150298.59;;;7.93
15453;BMP280;7827;53.594;9.938;2022-09-29T05:43:54;150307.34;;;7.97
15453;BMP280;7827;53.594;9.938;2022-09-29T05:46:23;150306.06;;;7.96
15453;BMP280;7827;53.594;9.938;2022-09-29T05:48:51;150309.81;;;7.98
15453;BMP280;7827;53.594;9.938;2022-09-29T05:51:22;150319.84;;;8.02
15453;BMP280;7827;53.594;9.938;2022-09-29T05:53:50;150333.63;;;8.07
15453;BMP280;7827;53.594;9.938;2022-09-29T05:56:21;150347.38;;;8.13
15453;BMP280;7827;53.594;9.938;2022-09-29T05:58:51;150346.16;;;8.12
15453;BMP280;7827;53.594;9.938;2022-09-29T06:01:22;150358.63;;;8.17
15453;BMP280;7827;53.594;9.938;2022-09-29T06:03:53;150381.13;;;8.26
15453;BMP280;7827;53.594;9.938;2022-09-29T06:06:24;150381.13;;;8.26
15453;BMP280;7827;53.594;9.938;2022-09-29T06:08:55;150393.69;;;8.31
15453;BMP280;7827;53.594;9.938;2022-09-29T06:11:27;150396.13;;;8.32
15453;BMP280;7827;53.594;9.938;2022-09-29T06:14:00;150397.44;;;8.32
15453;BMP280;7827;53.594;9.938;2022-09-29T06:16:31;150422.44;;;8.42
15453;BMP280;7827;53.594;9.938;2022-09-29T06:19:01;150433.72;;;8.47
15453;BMP280;7827;53.594;9.938;2022-09-29T06:21:31;150418.69;;;8.41
15453;BMP280;7827;53.594;9.938;2022-09-29T06:24:01;150426.19;;;8.44
15453;BMP280;7827;53.594;9.938;2022-09-29T06:26:29;150434.94;;;8.47
15453;BMP280;7827;53.594;9.938;2022-09-29T06:28:59;150438.69;;;8.49
15453;BMP280;7827;53.594;9.938;2022-09-29T06:31:29;150461.22;;;8.58
15453;BMP280;7827;53.594;9.938;2022-09-29T06:34:00;150458.69;;;8.57
15453;BMP280;7827;53.594;9.938;2022-09-29T06:36:32;150456.22;;;8.56
15453;BMP280;7827;53.594;9.938;2022-09-29T06:39:19;150453.69;;;8.55
15453;BMP280;7827;53.594;9.938;2022-09-29T06:41:48;150466.19;;;8.60
15453;BMP280;7827;53.594;9.938;2022-09-29T06:44:23;150477.44;;;8.64
15453;BMP280;7827;53.594;9.938;2022-09-29T06:46:53;150481.19;;;8.66
15453;BMP280;7827;53.594;9.938;2022-09-29T06:49:22;150481.19;;;8.66
15453;BMP280;7827;53.594;9.938;2022-09-29T06:51:51;150501.25;;;8.73
15453;BMP280;7827;53.594;9.938;2022-09-29T06:54:21;150512.50;;;8.78
15453;BMP280;7827;53.594;9.938;2022-09-29T06:56:52;150515.03;;;8.79
15453;BMP280;7827;53.594;9.938;2022-09-29T06:59:22;150518.78;;;8.80
15453;BMP280;7827;53.594;9.938;2022-09-29T07:01:51;150521.25;;;8.81
15453;BMP280;7827;53.594;9.938;2022-09-29T07:04:20;150537.53;;;8.88
15453;BMP280;7827;53.594;9.938;2022-09-29T07:06:50;150530.03;;;8.85
15453;BMP280;7827;53.594;9.938;2022-09-29T07:09:19;150538.78;;;8.88
15453;BMP280;7827;53.594;9.938;2022-09-29T07:11:50;150557.53;;;8.96
15453;BMP280;7827;53.594;9.938;2022-09-29T07:14:22;150563.81;;;8.98
15453;BMP280;7827;53.594;9.938;2022-09-29T07:16:51;150567.56;;;9.00
15453;BMP280;7827;53.594;9.938;2022-09-29T07:19:20;150570.03;;;9.01
15453;BMP280;7827;53.594;9.938;2022-09-29T07:21:48;150562.53;;;8.98
15453;BMP280;7827;53.594;9.938;2022-09-29T07:24:18;150571.31;;;9.01
15453;BMP280;7827;53.594;9.938;2022-09-29T07:26:46;150585.09;;;9.07
15453;BMP280;7827;53.594;9.938;2022-09-29T07:29:14;150591.31;;;9.09
15453;BMP280;7827;53.594;9.938;2022-09-29T07:31:44;150601.34;;;9.13
15453;BMP280;7827;53.594;9.938;2022-09-29T07:34:18;150602.56;;;9.14
15453;BMP280;7827;53.594;9.938;2022-09-29T07:36:47;150616.34;;;9.19
15453;BMP280;7827;53.594;9.938;2022-09-29T07:39:15;150640.13;;;9.28
15453;BMP280;7827;53.594;9.938;2022-09-29T07:41:44;150656.41;;;9.35
15453;BMP280;7827;53.594;9.938;2022-09-29T07:44:12;150671.44;;;9.41
15453;BMP280;7827;53.594;9.938;2022-09-29T07:46:41;150685.22;;;9.46
15453;BMP280;7827;53.594;9.938;2022-09-29T07:49:10;150698.94;;;9.52
15453;BMP280;7827;53.594;9.938;2022-09-29T07:51:39;150710.22;;;9.56
15453;BMP280;7827;53.594;9.938;2022-09-29T07:54:07;150713.97;;;9.58
15453;BMP280;7827;53.594;9.938;2022-09-29T07:56:36;150715.25;;;9.58
15453;BMP280;7827;53.594;9.938;2022-09-29T07:59:05;150719.00;;;9.60
15453;BMP280;7827;53.594;9.938;2022-09-29T08:01:33;150731.50;;;9.65
15453;BMP280;7827;53.594;9.938;2022-09-29T08:04:01;150734.03;;;9.66
15453;BMP280;7827;53.594;9.938;2022-09-29T08:06:31;150737.78;;;9.67
15453;BMP280;7827;53.594;9.938;2022-09-29T08:09:00;150741.53;;;9.69
15453;BMP280;7827;53.594;9.938;2022-09-29T08:11:35;150756.56;;;9.74
15453;BMP280;7827;53.594;9.938;2022-09-29T08:14:04;150756.56;;;9.74
15453;BMP280;7827;53.594;9.938;2022-09-29T08:16:32;150759.03;;;9.75
15453;BMP280;7827;53.594;9.938;2022-09-29T08:19:02;150771.56;;;9.80
15453;BMP280;7827;53.594;9.938;2022-09-29T08:21:32;150781.59;;;9.84
15453;BMP280;7827;53.594;9.938;2022-09-29T08:24:04;150784.06;;;9.85
15453;BMP280;7827;53.594;9.938;2022-09-29T08:26:35;150784.06;;;9.85
15453;BMP280;7827;53.594;9.938;2022-09-29T08:29:11;150807.94;;;9.95
15453;BMP280;7827;53.594;9.938;2022-09-29T08:31:43;150838.00;;;10.07
15453;BMP280;7827;53.594;9.938;2022-09-29T08:34:12;150861.75;;;10.16
15453;BMP280;7827;53.594;9.938;2022-09-29T08:36:43;150888.06;;;10.26
15453;BMP280;7827;53.594;9.938;2022-09-29T08:39:11;150916.88;;;10.38
15453;BMP280;7827;53.594;9.938;2022-09-29T08:41:49;150930.69;;;10.43
15453;BMP280;7827;53.594;9.938;2022-09-29T08:44:28;150944.41;;;10.49
15453;BMP280;7827;53.594;9.938;2022-09-29T08:47:17;150954.47;;;10.53
15453;BMP280;7827;53.594;9.938;2022-09-29T08:49:53;150972.00;;;10.60
15453;BMP280;7827;53.594;9.938;2022-09-29T08:52:27;150985.81;;;10.65
15453;BMP280;7827;53.594;9.938;2022-09-29T08:55:22;150994.56;;;10.68
15453;BMP280;7827;53.594;9.938;2022-09-29T08:57:58;151005.81;;;10.73
15453;BMP280;7827;53.594;9.938;2022-09-29T09:00:37;151019.63;;;10.78
15453;BMP280;7827;53.594;9.938;2022-09-29T09:03:51;151044.69;;;10.88
15453;BMP280;7827;53.594;9.938;2022-09-29T09:06:35;151079.75;;;11.02
15453;BMP280;7827;53.594;9.938;2022-09-29T09:09:41;151117.34;;;11.17
15453;BMP280;7827;53.594;9.938;2022-09-29T09:12:29;151148.72;;;11.29
15453;BMP280;7827;53.594;9.938;2022-09-29T09:15:28;151149.94;;;11.30
15453;BMP280;7827;53.594;9.938;2022-09-29T09:18:22;151172.50;;;11.39
15453;BMP280;7827;53.594;9.938;2022-09-29T09:21:05;151167.50;;;11.37
15453;BMP280;7827;53.594;9.938;2022-09-29T09:23:51;151183.78;;;11.43
15453;BMP280;7827;53.594;9.938;2022-09-29T09:26:36;151188.78;;;11.45
15453;BMP280;7827;53.594;9.938;2022-09-29T09:29:16;151202.66;;;11.51
15453;BMP280;7827;53.594;9.938;2022-09-29T09:31:54;151206.41;;;11.52
15453;BMP280;7827;53.594;9.938;2022-09-29T09:34:29;151235.25;;;11.64
15453;BMP280;7827;53.594;9.938;2022-09-29T09:37:14;151244.00;;;11.67
15453;BMP280;7827;53.594;9.938;2022-09-29T09:39:50;151245.28;;;11.68
15453;BMP280;7827;53.594;9.938;2022-09-29T09:42:28;151267.88;;;11.76
15453;BMP280;7827;53.594;9.938;2022-09-29T09:45:02;151295.44;;;11.87
15453;BMP280;7827;53.594;9.938;2022-09-29T09:47:37;151338.09;;;12.04
15453;BMP280;7827;53.594;9.938;2022-09-29T09:50:14;151360.66;;;12.13
15453;BMP280;7827;53.594;9.938;2022-09-29T09:52:45;151379.47;;;12.20
15453;BMP280;7827;53.594;9.938;2022-09-29T09:55:18;151410.81;;;12.33
15453;BMP280;7827;53.594;9.938;2022-09-29T09:58:22;151419.63;;;12.36
15453;BMP280;7827;53.594;9.938;2022-09-29T10:00:57;151420.84;;;12.37
15453;BMP280;7827;53.594;9.938;2022-09-29T10:03:27;151440.91;;;12.45
15453;BMP280;7827;53.594;9.938;2022-09-29T10:05:56;151461.00;;;12.53
15453;BMP280;7827;53.594;9.938;2022-09-29T10:08:27;151473.53;;;12.58
15453;BMP280;7827;53.594;9.938;2022-09-29T10:10:58;151472.31;;;12.57
15453;BMP280;7827;53.594;9.938;2022-09-29T10:13:30;151450.97;;;12.49
15453;BMP280;7827;53.594;9.938;2022-09-29T10:16:09;151448.44;;;12.48
15453;BMP280;7827;53.594;9.938;2022-09-29T10:18:42;151437.16;;;12.43
15453;BMP280;7827;53.594;9.938;2022-09-29T10:21:20;151415.84;;;12.35
15453;BMP280;7827;53.594;9.938;2022-09-29T10:23:54;151419.63;;;12.36
15453;BMP280;7827;53.594;9.938;2022-09-29T10:26:26;151427.16;;;12.39
15453;BMP280;7827;53.594;9.938;2022-09-29T10:29:00;151418.34;;;12.36
15453;BMP280;7827;53.594;9.938;2022-09-29T10:31:31;151402.03;;;12.29
15453;BMP280;7827;53.594;9.938;2022-09-29T10:34:14;151384.47;;;12.22
15453;BMP280;7827;53.594;9.938;2022-09-29T10:36:51;151366.91;;;12.15
15453;BMP280;7827;53.594;9.938;2022-09-29T10:39:39;151369.44;;;12.16
15453;BMP280;7827;53.594;9.938;2022-09-29T10:42:25;151350.63;;;12.09
15453;BMP280;7827;53.594;9.938;2022-09-29T10:45:10;151351.84;;;12.10
15453;BMP280;7827;53.594;9.938;2022-09-29T10:47:41;151356.91;;;12.12
15453;BMP280;7827;53.594;9.938;2022-09-29T10:50:16;151346.84;;;12.08
15453;BMP280;7827;53.594;9.938;2022-09-29T10:52:51;151348.09;;;12.08
15453;BMP280;7827;53.594;9.938;2022-09-29T10:55:24;151328.03;;;12.00
15453;BMP280;7827;53.594;9.938;2022-09-29T10:57:56;151330.56;;;12.01
15453;BMP280;7827;53.594;9.938;2022-09-29T11:00:30;151343.09;;;12.06
15453;BMP280;7827;53.594;9.938;2022-09-29T11:03:16;151355.63;;;12.11
15453;BMP280;7827;53.594;9.938;2022-09-29T11:05:53;151393.25;;;12.26
15453;BMP280;7827;53.594;9.938;2022-09-29T11:08:23;151419.63;;;12.36
15453;BMP280;7827;53.594;9.938;2022-09-29T11:11:05;151427.16;;;12.39
15453;BMP280;7827;53.594;9.938;2022-09-29T11:13:37;151435.91;;;12.43
15453;BMP280;7827;53.594;9.938;2022-09-29T11:16:15;151418.34;;;12.36
15453;BMP280;7827;53.594;9.938;2022-09-29T11:18:47;151425.84;;;12.39
15453;BMP280;7827;53.594;9.938;2022-09-29T11:21:55;151445.97;;;12.47
15453;BMP280;7827;53.594;9.938;2022-09-29T11:25:12;151452.19;;;12.49
15453;BMP280;7827;53.594;9.938;2022-09-29T11:28:02;151476.06;;;12.59
15453;BMP280;7827;53.594;9.938;2022-09-29T11:30:45;151502.41;;;12.69
15453;BMP280;7827;53.594;9.938;2022-09-29T11:33:28;151512.47;;;12.73
15453;BMP280;7827;53.594;9.938;2022-09-29T11:36:08;151511.16;;;12.72
15453;BMP280;7827;53.594;9.938;2022-09-29T11:38:50;151501.16;;;12.68
15453;BMP280;7827;53.594;9.938;2022-09-29T11:41:40;151493.59;;;12.65
15453;BMP280;7827;53.594;9.938;2022-09-29T11:44:40;151473.53;;;12.58
15453;BMP280;7827;53.594;9.938;2022-09-29T11:47:28;151457.25;;;12.51
15453;BMP280;7827;53.594;9.938;2022-09-29T11:50:21;151443.44;;;12.46
15453;BMP280;7827;53.594;9.938;2022-09-29T11:53:04;151429.63;;;12.40
15453;BMP280;7827;53.594;9.938;2022-09-29T11:55:52;151415.84;;;12.35
15453;BMP280;7827;53.594;9.938;2022-09-29T11:58:49;151414.56;;;12.34
15453;BMP280;7827;53.594;9.938;2022-09-29T12:01:35;151418.34;;;12.36
15453;BMP280;7827;53.594;9.938;2022-09-29T12:04:22;151417.09;;;12.35
15453;BMP280;7827;53.594;9.938;2022-09-29T12:07:04;151440.91;;;12.45
15453;BMP280;7827;53.594;9.938;2022-09-29T12:09:59;151440.91;;;12.45
15453;BMP280;7827;53.594;9.938;2022-09-29T12:12:38;151435.91;;;12.43
15453;BMP280;7827;53.594;9.938;2022-09-29T12:15:25;151425.84;;;12.39
15453;BMP280;7827;53.594;9.938;2022-09-29T12:18:02;151433.38;;;12.42
15453;BMP280;7827;53.594;9.938;2022-09-29T12:20:35;151428.38;;;12.40
15453;BMP280;7827;53.594;9.938;2022-09-29T12:23:10;151428.38;;;12.40
15453;BMP280;7827;53.594;9.938;2022-09-29T12:25:51;151425.84;;;12.39
15453;BMP280;7827;53.594;9.938;2022-09-29T12:28:27;151440.91;;;12.45
15453;BMP280;7827;53.594;9.938;2022-09-29T12:31:03;151444.66;;;12.46
15453;BMP280;7827;53.594;9.938;2022-09-29T12:33:37;151448.44;;;12.48
15453;BMP280;7827;53.594;9.938;2022-09-29T12:36:29;151469.78;;;12.56
15453;BMP280;7827;53.594;9.938;2022-09-29T12:39:35;151481.06;;;12.61
15453;BMP280;7827;53.594;9.938;2022-09-29T12:42:25;151496.13;;;12.66
15453;BMP280;7827;53.594;9.938;2022-09-29T12:45:02;151486.06;;;12.63
15453;BMP280;7827;53.594;9.938;2022-09-29T12:47:52;151494.88;;;12.66
15453;BMP280;7827;53.594;9.938;2022-09-29T12:50:27;151508.69;;;12.71
15453;BMP280;7827;53.594;9.938;2022-09-29T12:53:02;151520.00;;;12.76
15453;BMP280;7827;53.594;9.938;2022-09-29T12:55:46;151536.28;;;12.82
15453;BMP280;7827;53.594;9.938;2022-09-29T12:58:24;151546.38;;;12.86
15453;BMP280;7827;53.594;9.938;2022-09-29T13:01:18;151545.09;;;12.86
15453;BMP280;7827;53.594;9.938;2022-09-29T13:05:02;151541.34;;;12.84
15453;BMP280;7827;53.594;9.938;2022-09-29T13:08:14;151518.69;;;12.75
15453;BMP280;7827;53.594;9.938;2022-09-29T13:11:12;151508.69;;;12.71
15453;BMP280;7827;53.594;9.938;2022-09-29T13:14:06;151496.13;;;12.66
15453;BMP280;7827;53.594;9.938;2022-09-29T13:16:58;151478.53;;;12.60
15453;BMP280;7827;53.594;9.938;2022-09-29T13:23:06;151486.06;;;12.63
15453;BMP280;7827;53.594;9.938;2022-09-29T13:25:50;151473.53;;;12.58
15453;BMP280;7827;53.594;9.938;2022-09-29T13:28:31;151473.53;;;12.58
15453;BMP280;7827;53.594;9.938;2022-09-29T13:31:04;151466.00;;;12.55
15453;BMP280;7827;53.594;9.938;2022-09-29T13:33:34;151435.91;;;12.43
15453;BMP280;7827;53.594;9.938;2022-09-29T13:36:03;151423.38;;;12.38
15453;BMP280;7827;53.594;9.938;2022-09-29T13:38:35;151393.25;;;12.26
15453;BMP280;7827;53.594;9.938;2022-09-29T13:41:12;151378.19;;;12.20
15453;BMP280;7827;53.594;9.938;2022-09-29T13:44:16;151388.25;;;12.24
15453;BMP280;7827;53.594;9.938;2022-09-29T13:46:46;151385.72;;;12.23
15453;BMP280;7827;53.594;9.938;2022-09-29T13:49:24;151392.00;;;12.25
15453;BMP280;7827;53.594;9.938;2022-09-29T13:51:57;151387.00;;;12.23
15453;BMP280;7827;53.594;9.938;2022-09-29T13:54:38;151387.00;;;12.23
15453;BMP280;7827;53.594;9.938;2022-09-29T13:57:20;151399.53;;;12.28
15453;BMP280;7827;53.594;9.938;2022-09-29T14:00:27;151413.34;;;12.34
15453;BMP280;7827;53.594;9.938;2022-09-29T14:03:21;151402.03;;;12.29
15453;BMP280;7827;53.594;9.938;2022-09-29T14:06:12;151413.34;;;12.34
15453;BMP280;7827;53.594;9.938;2022-09-29T14:09:07;151399.53;;;12.28
15453;BMP280;7827;53.594;9.938;2022-09-29T14:11:42;151407.03;;;12.31
15453;BMP280;7827;53.594;9.938;2022-09-29T14:14:17;151409.56;;;12.32
15453;BMP280;7827;53.594;9.938;2022-09-29T14:16:54;151395.75;;;12.27
15453;BMP280;7827;53.594;9.938;2022-09-29T14:19:50;151395.75;;;12.27
15453;BMP280;7827;53.594;9.938;2022-09-29T14:22:57;151418.34;;;12.36
15453;BMP280;7827;53.594;9.938;2022-09-29T14:25:52;151437.16;;;12.43
15453;BMP280;7827;53.594;9.938;2022-09-29T14:28:34;151424.63;;;12.38
15453;BMP280;7827;53.594;9.938;2022-09-29T14:31:03;151418.34;;;12.36
15453;BMP280;7827;53.594;9.938;2022-09-29T14:33:49;151423.38;;;12.38
15453;BMP280;7827;53.594;9.938;2022-09-29T14:36:22;151424.63;;;12.38
15453;BMP280;7827;53.594;9.938;2022-09-29T14:38:55;151423.38;;;12.38
15453;BMP280;7827;53.594;9.938;2022-09-29T14:41:46;151420.84;;;12.37
15453;BMP280;7827;53.594;9.938;2022-09-29T14:44:20;151418.34;;;12.36
15453;BMP280;7827;53.594;9.938;2022-09-29T14:47:06;151428.38;;;12.40
15453;BMP280;7827;53.594;9.938;2022-09-29T14:50:32;151457.25;;;12.51
15453;BMP280;7827;53.594;9.938;2022-09-29T14:53:44;151450.97;;;12.49
15453;BMP280;7827;53.594;9.938;2022-09-29T14:56:31;151454.72;;;12.50
15453;BMP280;7827;53.594;9.938;2022-09-29T14:59:20;151463.50;;;12.54
15453;BMP280;7827;53.594;9.938;2022-09-29T15:02:15;151453.50;;;12.50
15453;BMP280;7827;53.594;9.938;2022-09-29T15:04:47;151448.44;;;12.48
15453;BMP280;7827;53.594;9.938;2022-09-29T15:07:20;151435.91;;;12.43
15453;BMP280;7827;53.594;9.938;2022-09-29T15:09:51;151424.63;;;12.38
15453;BMP280;7827;53.594;9.938;2022-09-29T15:12:23;151433.38;;;12.42
15453;BMP280;7827;53.594;9.938;2022-09-29T15:14:53;151440.91;;;12.45
15453;BMP280;7827;53.594;9.938;2022-09-29T15:17:43;151449.72;;;12.48